Wan Hai 510 — 9VJJ8 — position and weather

sailwx.info

Track history (hours):
 
Tides and Currents Weather Stations Pressure Air Temp Water Temp Dewpoint Dewpoint Depression Visibility Wind Speed Wind Dir Waves Ship Positions

Wan Hai 510

Last reported at 2014-Jul-14 10:32 UTC. Time now 2014-Jul-23 09:49 UTC.
Position N 01°10' E 103°47'.
Warning: this ship's position is 8 days out of date.

Length 269 m; draft 12 m.

Type: Cargo ship. MMSI: 565741000.

Date/timePositionNaut miles runAvg speedWind from/ knotsBaromVisibWave heightAir tempDewpointWater temp
2014-Jul-14 10:32N 01°10' E 103°47'7 7.6
2014-Jul-14 09:33N 01°16' E 103°51'0 0.2
2014-Jul-14 08:33N 01°16' E 103°51'0 0.0
2014-Jul-14 07:33N 01°16' E 103°51'0 0.0
2014-Jul-14 06:30N 01°16' E 103°51'0 0.0
2014-Jul-14 05:33N 01°16' E 103°51'0 0.0
2014-Jul-14 04:33N 01°16' E 103°51'0 0.0
2014-Jul-14 03:24N 01°16' E 103°51'  
2014-Jul-10 15:33N 22°24' E 113°54'3 3.2
2014-Jul-10 14:33N 22°27' E 113°53'0 0.0
2014-Jul-10 13:33N 22°27' E 113°53'0 0.0
2014-Jul-10 12:15N 22°27' E 113°53'0 0.0
2014-Jul-10 11:33N 22°27' E 113°53'0 0.0
2014-Jul-10 10:27N 22°27' E 113°53'0 0.0
2014-Jul-10 09:33N 22°27' E 113°53'0 0.0
2014-Jul-10 08:30N 22°27' E 113°53'0 0.0
2014-Jul-10 07:33N 22°27' E 113°53'0 0.0
2014-Jul-10 06:33N 22°27' E 113°53'0 0.0
2014-Jul-10 05:33N 22°27' E 113°53'0 0.0
2014-Jul-10 04:33N 22°27' E 113°53'0 0.0
2014-Jul-10 03:33N 22°27' E 113°53'0 0.0
2014-Jul-10 02:33N 22°27' E 113°53'0 0.0
2014-Jul-10 01:33N 22°27' E 113°53'7 6.8
2014-Jul-10 00:32N 22°21' E 113°57'9 9.1
2014-Jul-09 23:33N 22°19' E 114°06'1 0.0
2014-Jul-09 03:33N 22°19' E 114°06'17 7.6
2014-Jul-09 01:17N 22°05' E 114°17'13 0.6
2014-Jul-08 05:19N 22°07' E 114°31'30114.4
2014-Jul-07 08:22N 22°32' E 119°55'1113.8
2014-Jul-07 07:33N 22°32' E 120°07'1110.9
2014-Jul-07 06:33N 22°33' E 120°19'1 0.9
2014-Jul-07 05:32N 22°33' E 120°20'0 0.0
2014-Jul-07 04:31N 22°33' E 120°20'0 0.0
2014-Jul-07 03:31N 22°33' E 120°20'0 0.0
2014-Jul-07 02:31N 22°33' E 120°20'0 0.0
2014-Jul-07 01:31N 22°33' E 120°20'0 0.0
2014-Jul-07 00:19N 22°33' E 120°20'0 0.0
2014-Jul-06 23:31N 22°33' E 120°20'0 0.0
2014-Jul-06 22:31N 22°33' E 120°20'0 0.0
2014-Jul-06 21:25N 22°33' E 120°20'0 0.0
2014-Jul-06 20:31N 22°33' E 120°20'0 0.0
2014-Jul-06 18:31N 22°33' E 120°20'0 0.0
2014-Jul-06 17:31N 22°33' E 120°20'0 0.0
2014-Jul-06 16:31N 22°33' E 120°20'0 0.0
2014-Jul-06 15:25N 22°33' E 120°20'0 0.0
2014-Jul-06 14:25N 22°33' E 120°20'0 0.0
2014-Jul-06 13:31N 22°33' E 120°20'0 0.0
2014-Jul-06 12:31N 22°33' E 120°20'0 0.0
2014-Jul-06 11:31N 22°33' E 120°20'0 0.0
2014-Jul-06 10:31N 22°33' E 120°20'0 0.0
2014-Jul-06 09:31N 22°33' E 120°20'0 0.0
2014-Jul-06 08:25N 22°33' E 120°20'0 0.0
2014-Jul-06 07:31N 22°33' E 120°20'0 0.0
2014-Jul-06 06:31N 22°33' E 120°20'0 0.0
2014-Jul-06 05:31N 22°33' E 120°20'0 0.0
2014-Jul-06 04:31N 22°33' E 120°20'0 0.0
2014-Jul-06 03:31N 22°33' E 120°20'3 3.3
2014-Jul-06 02:33N 22°33' E 120°17'5 5.3
2014-Jul-06 01:33N 22°29' E 120°12'1 1.1
2014-Jul-06 00:33N 22°28' E 120°12'0 0.5
2014-Jul-05 23:33N 22°29' E 120°12'1 0.8
2014-Jul-05 22:33N 22°28' E 120°11'7 6.8
2014-Jul-05 21:32N 22°22' E 120°07'1111.7
2014-Jul-05 20:33N 22°14' E 119°59'  
Track history (hours):
 
Tides and Currents Weather Stations Pressure Air Temp Water Temp Dewpoint Dewpoint Depression Visibility Wind Speed Wind Dir Waves Ship Positions

Wan Hai 510

Last reported at 2014-Jul-14 10:32 UTC. Time now 2014-Jul-23 09:49 UTC.
Position N 01°10' E 103°47'.
Warning: this ship's position is 8 days out of date.

Length 269 m; draft 12 m.

Type: Cargo ship. MMSI: 565741000.

Date/timePositionNaut miles runAvg speedWind from/ knotsBaromVisibWave heightAir tempDewpointWater temp
2014-Jul-14 10:32N 01°10' E 103°47'7 7.6
2014-Jul-14 09:33N 01°16' E 103°51'0 0.2
2014-Jul-14 08:33N 01°16' E 103°51'0 0.0
2014-Jul-14 07:33N 01°16' E 103°51'0 0.0
2014-Jul-14 06:30N 01°16' E 103°51'0 0.0
2014-Jul-14 05:33N 01°16' E 103°51'0 0.0
2014-Jul-14 04:33N 01°16' E 103°51'0 0.0
2014-Jul-14 03:24N 01°16' E 103°51'  
2014-Jul-10 15:33N 22°24' E 113°54'3 3.2
2014-Jul-10 14:33N 22°27' E 113°53'0 0.0
2014-Jul-10 13:33N 22°27' E 113°53'0 0.0
2014-Jul-10 12:15N 22°27' E 113°53'0 0.0
2014-Jul-10 11:33N 22°27' E 113°53'0 0.0
2014-Jul-10 10:27N 22°27' E 113°53'0 0.0
2014-Jul-10 09:33N 22°27' E 113°53'0 0.0
2014-Jul-10 08:30N 22°27' E 113°53'0 0.0
2014-Jul-10 07:33N 22°27' E 113°53'0 0.0
2014-Jul-10 06:33N 22°27' E 113°53'0 0.0
2014-Jul-10 05:33N 22°27' E 113°53'0 0.0
2014-Jul-10 04:33N 22°27' E 113°53'0 0.0
2014-Jul-10 03:33N 22°27' E 113°53'0 0.0
2014-Jul-10 02:33N 22°27' E 113°53'0 0.0
2014-Jul-10 01:33N 22°27' E 113°53'7 6.8
2014-Jul-10 00:32N 22°21' E 113°57'9 9.1
2014-Jul-09 23:33N 22°19' E 114°06'1 0.0
2014-Jul-09 03:33N 22°19' E 114°06'17 7.6
2014-Jul-09 01:17N 22°05' E 114°17'13 0.6
2014-Jul-08 05:19N 22°07' E 114°31'30114.4
2014-Jul-07 08:22N 22°32' E 119°55'1113.8
2014-Jul-07 07:33N 22°32' E 120°07'1110.9
2014-Jul-07 06:33N 22°33' E 120°19'1 0.9
2014-Jul-07 05:32N 22°33' E 120°20'0 0.0
2014-Jul-07 04:31N 22°33' E 120°20'0 0.0
2014-Jul-07 03:31N 22°33' E 120°20'0 0.0
2014-Jul-07 02:31N 22°33' E 120°20'0 0.0
2014-Jul-07 01:31N 22°33' E 120°20'0 0.0
2014-Jul-07 00:19N 22°33' E 120°20'0 0.0
2014-Jul-06 23:31N 22°33' E 120°20'0 0.0
2014-Jul-06 22:31N 22°33' E 120°20'0 0.0
2014-Jul-06 21:25N 22°33' E 120°20'0 0.0
2014-Jul-06 20:31N 22°33' E 120°20'0 0.0
2014-Jul-06 18:31N 22°33' E 120°20'0 0.0
2014-Jul-06 17:31N 22°33' E 120°20'0 0.0
2014-Jul-06 16:31N 22°33' E 120°20'0 0.0
2014-Jul-06 15:25N 22°33' E 120°20'0 0.0
2014-Jul-06 14:25N 22°33' E 120°20'0 0.0
2014-Jul-06 13:31N 22°33' E 120°20'0 0.0
2014-Jul-06 12:31N 22°33' E 120°20'0 0.0
2014-Jul-06 11:31N 22°33' E 120°20'0 0.0
2014-Jul-06 10:31N 22°33' E 120°20'0 0.0
2014-Jul-06 09:31N 22°33' E 120°20'0 0.0
2014-Jul-06 08:25N 22°33' E 120°20'0 0.0
2014-Jul-06 07:31N 22°33' E 120°20'0 0.0
2014-Jul-06 06:31N 22°33' E 120°20'0 0.0
2014-Jul-06 05:31N 22°33' E 120°20'0 0.0
2014-Jul-06 04:31N 22°33' E 120°20'0 0.0
2014-Jul-06 03:31N 22°33' E 120°20'3 3.3
2014-Jul-06 02:33N 22°33' E 120°17'5 5.3
2014-Jul-06 01:33N 22°29' E 120°12'1 1.1
2014-Jul-06 00:33N 22°28' E 120°12'0 0.5
2014-Jul-05 23:33N 22°29' E 120°12'1 0.8
2014-Jul-05 22:33N 22°28' E 120°11'7 6.8
2014-Jul-05 21:32N 22°22' E 120°07'1111.7
2014-Jul-05 20:33N 22°14' E 119°59'  

Dump ship's entire track history